Time;durP1;ratioP1;P1;durP2;ratioP2;P2;SDS_P1;SDS_P2;PMS_P1;PMS_P2;Temp;Humidity;BMP_temperature;BMP_pressure;BME280_temperature;BME280_humidity;BME280_pressure;Samples;Min_cycle;Max_cycle;Signal;HPM_P1;HPM_P2
2023/08/19 00:01:39;;;;;;;3.10;1.48;;;22.80;99.90;;;;;;5071691;28;20048;-92
2023/08/19 00:04:05;;;;;;;5.57;2.00;;;22.80;99.90;;;;;;5071477;28;20041;-91
2023/08/19 00:06:41;;;;;;;3.03;1.80;;;22.80;99.90;;;;;;5071406;28;20388;-88
2023/08/19 00:09:08;;;;;;;4.82;1.83;;;22.90;99.90;;;;;;5070652;28;20029;-86
2023/08/19 00:11:35;;;;;;;3.37;1.90;;;22.90;99.90;;;;;;5071713;28;20017;-87
2023/08/19 00:14:03;;;;;;;2.50;1.90;;;22.80;99.90;;;;;;5071518;28;20028;-90
2023/08/19 00:16:29;;;;;;;7.68;1.80;;;22.90;99.90;;;;;;5065687;28;20495;-91
2023/08/19 00:18:55;;;;;;;3.15;1.70;;;22.90;99.90;;;;;;5069388;28;20033;-90
2023/08/19 00:21:21;;;;;;;7.97;2.35;;;22.80;99.90;;;;;;5072687;28;20040;-87
2023/08/19 00:23:47;;;;;;;5.03;1.80;;;22.70;99.90;;;;;;5074406;28;20449;-88
2023/08/19 00:26:12;;;;;;;4.80;2.30;;;22.70;99.90;;;;;;5071072;28;20077;-88
2023/08/19 00:28:39;;;;;;;3.28;1.90;;;22.80;99.90;;;;;;5071668;28;20107;-88
2023/08/19 00:31:05;;;;;;;4.10;1.90;;;22.60;99.90;;;;;;5070205;28;20016;-91
2023/08/19 00:33:31;;;;;;;2.63;1.70;;;22.70;99.90;;;;;;5070465;28;20515;-90
2023/08/19 00:35:56;;;;;;;3.67;2.10;;;22.70;99.90;;;;;;5070074;28;20052;-93
2023/08/19 00:38:22;;;;;;;7.10;2.10;;;22.80;99.90;;;;;;5070504;28;20040;-90
2023/08/19 00:40:47;;;;;;;2.78;1.63;;;22.80;99.90;;;;;;5070721;28;20407;-93
2023/08/19 00:43:13;;;;;;;6.82;1.90;;;22.80;99.90;;;;;;5070272;28;20068;-87
2023/08/19 00:45:47;;;;;;;8.52;1.80;;;22.80;99.90;;;;;;5069694;28;20059;-92
2023/08/19 00:48:14;;;;;;;4.85;1.92;;;22.80;99.90;;;;;;5069376;28;20051;-87
2023/08/19 00:50:40;;;;;;;4.88;1.90;;;22.80;99.90;;;;;;5070935;28;20032;-88
2023/08/19 00:53:07;;;;;;;3.95;2.00;;;22.70;99.90;;;;;;5070210;28;20025;-93
2023/08/19 00:55:33;;;;;;;4.70;1.63;;;22.80;99.90;;;;;;5070737;28;20391;-88
2023/08/19 00:58:01;;;;;;;4.38;1.90;;;22.80;99.90;;;;;;5071422;28;20066;-88
2023/08/19 01:00:30;;;;;;;5.75;1.90;;;22.50;99.90;;;;;;5071455;28;20020;-92
2023/08/19 01:02:55;;;;;;;6.38;2.13;;;22.60;99.90;;;;;;5070328;28;20029;-90
2023/08/19 01:05:24;;;;;;;6.38;2.25;;;22.60;99.90;;;;;;5069937;28;20075;-87
2023/08/19 01:07:58;;;;;;;6.47;1.80;;;22.60;99.90;;;;;;5070191;28;20249;-89
2023/08/19 01:10:29;;;;;;;6.40;2.28;;;22.70;99.90;;;;;;5070100;28;20380;-87
2023/08/19 01:13:12;;;;;;;7.82;2.40;;;22.60;99.90;;;;;;5051026;28;20025;-93
2023/08/19 01:15:57;;;;;;;3.58;1.80;;;22.70;99.90;;;;;;5050683;28;20033;-89
2023/08/19 01:18:23;;;;;;;5.38;2.03;;;22.60;99.90;;;;;;5052862;28;20497;-88
2023/08/19 01:20:52;;;;;;;8.95;2.20;;;22.60;99.90;;;;;;5070464;28;20081;-91
2023/08/19 01:23:26;;;;;;;6.60;2.00;;;22.60;99.90;;;;;;5080985;28;20040;-95
2023/08/19 01:25:53;;;;;;;4.80;1.98;;;22.60;99.90;;;;;;5090338;28;20114;-93
2023/08/19 01:28:21;;;;;;;5.18;2.03;;;22.70;99.90;;;;;;5070069;28;20028;-89
2023/08/19 01:30:47;;;;;;;4.80;2.10;;;22.70;99.90;;;;;;5070070;28;20029;-92
2023/08/19 01:33:13;;;;;;;4.82;2.00;;;22.70;99.90;;;;;;5068847;28;20021;-91
2023/08/19 01:36:10;;;;;;;2.55;1.67;;;22.80;99.90;;;;;;5069877;28;20397;-93
2023/08/19 01:38:51;;;;;;;7.72;2.55;;;22.70;99.90;;;;;;5046376;28;20480;-88
2023/08/19 01:41:19;;;;;;;6.00;2.22;;;22.80;99.90;;;;;;5069776;28;20387;-93
2023/08/19 01:43:45;;;;;;;4.93;2.00;;;22.80;99.90;;;;;;5069883;28;20131;-91
2023/08/19 01:46:11;;;;;;;6.90;2.00;;;22.70;99.90;;;;;;5067178;28;20068;-93
2023/08/19 01:48:36;;;;;;;10.40;2.20;;;22.70;99.90;;;;;;5069979;28;20028;-88
2023/08/19 01:51:02;;;;;;;7.65;1.90;;;22.70;99.90;;;;;;5069445;28;20476;-89
2023/08/19 01:53:29;;;;;;;4.07;2.10;;;22.70;99.90;;;;;;5070595;28;20384;-91
2023/08/19 01:55:54;;;;;;;4.88;2.00;;;22.60;99.90;;;;;;5068432;28;20086;-93
2023/08/19 01:58:20;;;;;;;8.43;2.30;;;22.60;99.90;;;;;;5068954;28;20485;-88
2023/08/19 02:00:45;;;;;;;8.70;2.22;;;22.60;99.90;;;;;;5068912;28;20024;-89
2023/08/19 02:03:11;;;;;;;8.38;2.20;;;22.50;99.90;;;;;;5069331;28;20028;-88
2023/08/19 02:05:37;;;;;;;8.00;2.38;;;22.40;99.90;;;;;;5085455;28;20025;-93
2023/08/19 02:08:03;;;;;;;5.88;2.15;;;22.40;99.90;;;;;;5070638;28;20371;-91
2023/08/19 02:10:28;;;;;;;3.45;1.90;;;22.40;99.90;;;;;;5068744;28;20021;-88
2023/08/19 02:12:54;;;;;;;8.45;2.17;;;22.40;99.90;;;;;;5069449;28;20099;-92
2023/08/19 02:15:20;;;;;;;5.78;1.90;;;22.40;99.90;;;;;;5068487;28;20052;-87
2023/08/19 02:17:45;;;;;;;6.20;2.10;;;22.40;99.90;;;;;;5070019;28;20051;-89
2023/08/19 02:20:11;;;;;;;3.72;1.73;;;22.50;99.90;;;;;;5076567;28;20033;-87
2023/08/19 02:22:40;;;;;;;4.38;1.58;;;22.40;99.90;;;;;;5072098;28;20028;-87
2023/08/19 02:25:10;;;;;;;4.38;1.90;;;22.40;99.90;;;;;;5086878;28;20036;-88
2023/08/19 02:27:40;;;;;;;4.93;1.95;;;22.40;99.90;;;;;;5092936;28;20072;-88
2023/08/19 02:30:06;;;;;;;5.65;2.25;;;22.50;99.90;;;;;;5074781;28;20028;-89
2023/08/19 02:32:31;;;;;;;6.35;2.05;;;22.30;99.90;;;;;;5070852;28;20480;-89
2023/08/19 02:35:00;;;;;;;6.82;2.10;;;22.30;99.90;;;;;;5067864;28;20042;-89
2023/08/19 02:37:25;;;;;;;12.15;2.22;;;22.40;99.90;;;;;;5067338;28;20481;-87
2023/08/19 02:39:51;;;;;;;6.85;2.22;;;22.30;99.90;;;;;;5067267;28;20029;-87
2023/08/19 02:42:16;;;;;;;8.55;2.33;;;22.30;99.90;;;;;;5067016;28;20024;-88
2023/08/19 02:44:43;;;;;;;9.15;2.50;;;22.30;99.90;;;;;;5068345;28;20033;-90
2023/08/19 02:47:08;;;;;;;10.63;2.53;;;22.20;99.90;;;;;;5068623;28;20021;-87
2023/08/19 02:49:36;;;;;;;9.88;2.28;;;22.10;99.90;;;;;;5068627;28;20546;-89
2023/08/19 02:52:02;;;;;;;10.00;2.47;;;22.10;99.90;;;;;;5067874;28;20122;-87
2023/08/19 02:54:28;;;;;;;6.10;2.15;;;22.10;99.90;;;;;;5068588;28;20150;-88
2023/08/19 02:56:53;;;;;;;11.52;2.38;;;22.10;99.90;;;;;;5067911;28;20108;-87
2023/08/19 02:59:19;;;;;;;13.00;2.60;;;22.00;99.90;;;;;;5083803;28;20093;-87
2023/08/19 03:01:45;;;;;;;8.23;2.45;;;22.00;99.90;;;;;;5068263;28;20025;-88
2023/08/19 03:04:10;;;;;;;13.73;2.10;;;21.80;99.90;;;;;;5068378;28;20040;-87
2023/08/19 03:06:36;;;;;;;12.52;2.70;;;21.70;99.90;;;;;;5067278;28;20103;-87
2023/08/19 03:09:01;;;;;;;9.82;2.75;;;21.70;99.90;;;;;;5070477;28;20042;-88
2023/08/19 03:11:27;;;;;;;12.75;2.85;;;21.70;99.90;;;;;;5071901;28;20427;-87
2023/08/19 03:13:54;;;;;;;13.68;2.85;;;21.60;99.90;;;;;;5071481;28;20476;-87
2023/08/19 03:16:19;;;;;;;11.82;2.25;;;21.50;99.90;;;;;;5069996;28;20127;-87
2023/08/19 03:18:45;;;;;;;8.52;1.95;;;21.50;99.90;;;;;;5071676;28;20091;-88
2023/08/19 03:21:10;;;;;;;10.90;2.50;;;21.40;99.90;;;;;;5071498;28;20025;-88
2023/08/19 03:23:36;;;;;;;10.85;2.60;;;21.40;99.90;;;;;;5070967;28;20029;-86
2023/08/19 03:26:02;;;;;;;14.50;2.20;;;21.30;99.90;;;;;;5070151;28;20500;-87
2023/08/19 03:28:28;;;;;;;11.77;2.08;;;21.30;99.90;;;;;;5071600;28;20503;-86
2023/08/19 03:30:53;;;;;;;13.15;2.70;;;21.20;99.90;;;;;;5071704;28;20016;-88
2023/08/19 03:33:20;;;;;;;6.65;2.47;;;21.20;99.90;;;;;;5071425;28;20024;-90
2023/08/19 03:35:45;;;;;;;12.50;2.58;;;21.20;99.90;;;;;;5071787;28;20021;-86
2023/08/19 03:38:13;;;;;;;10.82;2.30;;;21.10;99.90;;;;;;5070672;28;20107;-88
2023/08/19 03:40:39;;;;;;;;;;;21.10;99.90;;;;;;5072521;28;20051;-88
2023/08/19 03:43:08;;;;;;;10.20;2.10;;;21.10;99.90;;;;;;5073040;28;19916;-86
2023/08/19 03:45:34;;;;;;;10.13;2.08;;;21.00;99.90;;;;;;5072896;28;20028;-87
2023/08/19 03:47:59;;;;;;;10.35;2.10;;;21.00;99.90;;;;;;5070714;28;20040;-87
2023/08/19 03:50:25;;;;;;;10.93;2.53;;;21.00;99.90;;;;;;5071890;28;20024;-87
2023/08/19 03:52:51;;;;;;;10.90;2.20;;;21.00;99.90;;;;;;5071459;28;20025;-87
2023/08/19 03:55:16;;;;;;;11.68;2.40;;;20.90;99.90;;;;;;5069909;28;20021;-87
2023/08/19 03:57:42;;;;;;;10.55;2.33;;;20.90;99.90;;;;;;5071642;28;20047;-88
2023/08/19 04:00:08;;;;;;;7.20;2.35;;;20.90;99.90;;;;;;5072388;28;20100;-87
2023/08/19 04:02:33;;;;;;;10.23;2.10;;;20.90;99.90;;;;;;5069666;28;20024;-87
2023/08/19 04:05:04;;;;;;;8.35;2.30;;;20.90;99.90;;;;;;5070776;28;20720;-87
2023/08/19 04:07:30;;;;;;;11.18;2.15;;;20.90;99.90;;;;;;5069737;28;20075;-89
2023/08/19 04:09:57;;;;;;;9.75;2.20;;;20.80;99.90;;;;;;5070136;28;20067;-86
2023/08/19 04:12:23;;;;;;;8.32;2.17;;;20.80;99.90;;;;;;5070759;28;20074;-86
2023/08/19 04:14:49;;;;;;;8.23;1.90;;;20.70;99.90;;;;;;5069296;28;20024;-87
2023/08/19 04:17:15;;;;;;;8.75;2.03;;;20.70;99.90;;;;;;5070754;28;20100;-87
2023/08/19 04:19:41;;;;;;;7.93;2.22;;;20.60;99.90;;;;;;5070327;28;20087;-87
2023/08/19 04:22:07;;;;;;;10.57;2.22;;;20.60;99.90;;;;;;5071464;28;20032;-87
2023/08/19 04:24:32;;;;;;;10.15;2.00;;;20.50;99.90;;;;;;5070733;28;20128;-87
2023/08/19 04:27:02;;;;;;;5.40;1.60;;;20.40;99.90;;;;;;5070562;28;20062;-87
2023/08/19 04:29:28;;;;;;;8.55;1.80;;;20.40;99.90;;;;;;5068927;28;20024;-87
2023/08/19 04:31:54;;;;;;;10.35;1.92;;;20.40;99.90;;;;;;5052002;28;20514;-87
2023/08/19 04:34:20;;;;;;;8.65;1.73;;;20.40;99.90;;;;;;5070600;28;20119;-87
2023/08/19 04:36:46;;;;;;;8.68;2.03;;;20.40;99.90;;;;;;5070583;28;20024;-87
2023/08/19 04:39:12;;;;;;;13.15;2.40;;;20.40;99.90;;;;;;5070651;28;20056;-87
2023/08/19 04:41:38;;;;;;;8.90;2.05;;;20.50;99.90;;;;;;5072022;28;20025;-86
2023/08/19 04:44:05;;;;;;;7.43;1.75;;;20.40;99.90;;;;;;5071095;28;20032;-86
2023/08/19 04:46:31;;;;;;;7.05;1.92;;;20.40;99.90;;;;;;5071055;28;20020;-86
2023/08/19 04:48:56;;;;;;;6.25;1.98;;;20.40;99.90;;;;;;5071062;28;20020;-86
2023/08/19 04:51:22;;;;;;;8.52;1.77;;;20.40;99.90;;;;;;5071080;28;20036;-86
2023/08/19 04:53:48;;;;;;;6.90;2.00;;;20.40;99.90;;;;;;5069518;28;20031;-87
2023/08/19 04:56:13;;;;;;;10.35;2.30;;;20.30;99.90;;;;;;5069444;28;20054;-87
2023/08/19 04:58:39;;;;;;;9.95;2.15;;;20.30;99.90;;;;;;5069435;28;20024;-87
2023/08/19 05:01:05;;;;;;;7.60;2.38;;;20.20;99.90;;;;;;5068580;28;20504;-87
2023/08/19 05:03:31;;;;;;;7.30;1.90;;;20.20;99.90;;;;;;5069726;28;20032;-86
2023/08/19 05:06:00;;;;;;;7.05;1.58;;;20.20;99.90;;;;;;5068205;28;20031;-88
2023/08/19 05:08:27;;;;;;;9.65;2.10;;;20.10;99.90;;;;;;5062716;28;20028;-87
2023/08/19 05:10:52;;;;;;;7.90;2.22;;;20.10;99.90;;;;;;5057028;28;20676;-88
2023/08/19 05:13:18;;;;;;;9.00;1.83;;;20.10;99.90;;;;;;5060450;28;20084;-86
2023/08/19 05:15:44;;;;;;;7.35;2.30;;;20.10;99.90;;;;;;5067709;28;20025;-85
2023/08/19 05:18:29;;;;;;;11.02;2.38;;;20.10;99.90;;;;;;5081631;28;20016;-87
2023/08/19 05:20:55;;;;;;;11.82;2.70;;;20.10;99.90;;;;;;5090220;28;20033;-87
2023/08/19 05:23:27;;;;;;;8.60;2.15;;;20.10;99.90;;;;;;5083040;28;20191;-85
2023/08/19 05:26:02;;;;;;;9.65;2.25;;;20.10;99.90;;;;;;5090061;28;20024;-89
2023/08/19 05:28:31;;;;;;;14.85;2.55;;;20.10;99.90;;;;;;5076313;28;20016;-90
2023/08/19 05:30:57;;;;;;;11.50;2.50;;;20.10;99.90;;;;;;5068400;28;20066;-86
2023/08/19 05:33:22;;;;;;;8.82;2.35;;;20.10;99.90;;;;;;5050336;28;20167;-86
2023/08/19 05:35:48;;;;;;;9.88;2.50;;;20.00;99.90;;;;;;5049942;28;22315;-89
2023/08/19 05:38:13;;;;;;;12.02;2.38;;;20.10;99.90;;;;;;5051655;28;20032;-88
2023/08/19 05:40:39;;;;;;;10.45;2.67;;;20.00;99.90;;;;;;5052036;28;21006;-88
2023/08/19 05:43:05;;;;;;;7.97;2.42;;;20.10;99.90;;;;;;5053912;28;20229;-89
2023/08/19 05:45:33;;;;;;;5.07;1.67;;;20.00;99.90;;;;;;5050661;28;20040;-89
2023/08/19 05:47:59;;;;;;;6.25;2.05;;;20.00;99.90;;;;;;5066723;28;20033;-88
2023/08/19 05:50:26;;;;;;;9.70;2.50;;;20.00;99.90;;;;;;5049360;28;20043;-89
2023/08/19 05:52:52;;;;;;;9.07;2.40;;;20.00;99.90;;;;;;5053395;28;20029;-89
2023/08/19 05:55:17;;;;;;;9.13;2.03;;;20.10;99.90;;;;;;5057157;28;20090;-87
2023/08/19 05:57:44;;;;;;;7.28;2.30;;;20.10;99.90;;;;;;5056565;28;20071;-94
2023/08/19 06:00:10;;;;;;;8.63;2.03;;;20.10;99.90;;;;;;5055164;28;20035;-91
2023/08/19 06:02:39;;;;;;;11.15;3.05;;;20.10;99.90;;;;;;5058221;28;20356;-89
2023/08/19 06:05:09;;;;;;;12.82;2.58;;;20.10;99.90;;;;;;5057757;28;21816;-89
2023/08/19 06:07:42;;;;;;;11.07;2.50;;;20.10;99.90;;;;;;5070600;28;20033;-88
2023/08/19 06:10:14;;;;;;;14.52;3.03;;;20.20;99.90;;;;;;5070888;28;20064;-89
2023/08/19 06:12:39;;;;;;;17.35;2.78;;;20.20;99.90;;;;;;5062179;28;20405;-90
2023/08/19 06:15:07;;;;;;;13.50;2.50;;;20.20;99.90;;;;;;5055495;28;20340;-93
2023/08/19 06:17:32;;;;;;;10.30;2.50;;;20.30;99.90;;;;;;5060005;28;20053;-92
2023/08/19 06:19:58;;;;;;;17.75;2.88;;;20.40;99.90;;;;;;5046042;28;20068;-89
2023/08/19 06:22:24;;;;;;;13.25;2.92;;;20.40;99.90;;;;;;5056273;28;20024;-88
2023/08/19 06:24:49;;;;;;;17.40;3.10;;;20.50;99.90;;;;;;5049843;28;20048;-88
2023/08/19 06:27:15;;;;;;;14.43;2.90;;;20.40;99.90;;;;;;5052225;28;20512;-88
2023/08/19 06:29:40;;;;;;;13.73;2.60;;;20.50;99.90;;;;;;5051139;28;20062;-88
2023/08/19 06:32:06;;;;;;;16.88;2.80;;;20.60;99.90;;;;;;5056502;28;20052;-91
2023/08/19 06:34:32;;;;;;;17.23;3.33;;;20.70;99.90;;;;;;5053490;28;20037;-90
2023/08/19 06:37:00;;;;;;;20.48;3.00;;;20.70;99.90;;;;;;5059913;28;20074;-91
2023/08/19 06:39:26;;;;;;;;;;;20.80;99.90;;;;;;5065119;28;20068;-88
2023/08/19 06:42:00;;;;;;;15.52;2.70;;;20.80;99.90;;;;;;5064801;28;20380;-88
2023/08/19 06:44:29;;;;;;;14.40;3.00;;;20.70;99.90;;;;;;5071404;28;20033;-88
2023/08/19 06:46:56;;;;;;;16.83;2.67;;;20.80;99.90;;;;;;5064634;28;20033;-90
2023/08/19 06:49:22;;;;;;;14.20;2.60;;;20.80;99.90;;;;;;5071738;28;20032;-94
2023/08/19 06:51:49;;;;;;;19.20;3.00;;;20.80;99.90;;;;;;5073636;28;20031;-88
2023/08/19 06:54:15;;;;;;;13.25;2.42;;;20.80;99.90;;;;;;5072459;28;20048;-88
2023/08/19 06:56:51;;;;;;;12.95;2.47;;;20.80;99.90;;;;;;5072862;28;20024;-90
2023/08/19 06:59:23;;;;;;;13.98;2.65;;;20.80;99.90;;;;;;5073772;28;20024;-91
2023/08/19 07:01:57;;;;;;;16.15;3.13;;;20.80;99.90;;;;;;5069638;28;20384;-88
2023/08/19 07:04:27;;;;;;;21.10;2.95;;;20.80;99.90;;;;;;5069513;28;20058;-84
2023/08/19 07:06:57;;;;;;;14.50;2.72;;;20.90;99.90;;;;;;5071487;28;20039;-84
2023/08/19 07:09:23;;;;;;;14.50;2.85;;;20.90;99.90;;;;;;5069616;28;20375;-86
2023/08/19 07:11:56;;;;;;;16.17;2.83;;;21.00;99.90;;;;;;5071793;28;20096;-88
2023/08/19 07:14:23;;;;;;;14.60;2.55;;;21.10;99.90;;;;;;5070741;28;20039;-88
2023/08/19 07:16:50;;;;;;;14.50;2.28;;;21.10;99.90;;;;;;5072339;28;20058;-87
2023/08/19 07:19:21;;;;;;;14.17;3.13;;;21.10;99.90;;;;;;5072250;28;20017;-86
2023/08/19 07:21:48;;;;;;;12.07;2.60;;;21.20;99.90;;;;;;5072471;28;20016;-86
2023/08/19 07:24:15;;;;;;;20.38;3.55;;;21.20;99.90;;;;;;5070257;28;20515;-87
2023/08/19 07:26:43;;;;;;;15.70;2.88;;;21.20;99.90;;;;;;5071416;28;20038;-87
2023/08/19 07:29:08;;;;;;;14.30;2.53;;;21.20;99.90;;;;;;5071637;28;20115;-88
2023/08/19 07:31:34;;;;;;;17.90;3.00;;;21.20;99.90;;;;;;5071528;28;20052;-87
2023/08/19 07:34:00;;;;;;;8.80;2.10;;;21.30;99.90;;;;;;5075794;28;20027;-87
2023/08/19 07:36:27;;;;;;;14.43;2.28;;;21.30;99.90;;;;;;5070033;28;20028;-86
2023/08/19 07:38:52;;;;;;;13.07;2.33;;;21.30;99.90;;;;;;5071294;28;20032;-87
2023/08/19 07:41:19;;;;;;;15.93;2.60;;;21.30;99.90;;;;;;5071662;28;20025;-87
2023/08/19 07:43:46;;;;;;;15.02;2.70;;;21.30;99.90;;;;;;5068758;28;20412;-87
2023/08/19 07:46:15;;;;;;;13.80;2.33;;;21.40;99.90;;;;;;5069146;28;20583;-88
2023/08/19 07:48:42;;;;;;;13.98;2.25;;;21.40;99.90;;;;;;5069797;28;20063;-87
2023/08/19 07:51:08;;;;;;;9.57;2.15;;;21.40;99.90;;;;;;5071085;28;20031;-87
2023/08/19 07:53:34;;;;;;;15.30;2.60;;;21.50;99.90;;;;;;5070661;28;20070;-87
2023/08/19 07:55:59;;;;;;;15.80;2.75;;;21.60;99.90;;;;;;5084691;28;20025;-86
2023/08/19 07:58:25;;;;;;;15.45;2.70;;;21.70;99.90;;;;;;5069185;28;20530;-87
2023/08/19 08:00:50;;;;;;;13.35;2.53;;;21.70;99.90;;;;;;5070447;28;21216;-86
2023/08/19 08:03:16;;;;;;;13.25;2.47;;;21.70;99.90;;;;;;5070638;28;20055;-86
2023/08/19 08:05:42;;;;;;;15.35;2.28;;;21.70;99.90;;;;;;5070516;28;20035;-87
2023/08/19 08:08:08;;;;;;;15.60;2.67;;;21.80;99.90;;;;;;5070928;28;20025;-87
2023/08/19 08:10:33;;;;;;;14.40;2.50;;;22.00;99.90;;;;;;5070379;28;20025;-86
2023/08/19 08:12:59;;;;;;;12.20;2.60;;;22.10;99.90;;;;;;5070283;28;20027;-87
2023/08/19 08:15:24;;;;;;;16.10;3.47;;;22.20;99.90;;;;;;5088781;28;20043;-86
2023/08/19 08:17:50;;;;;;;12.80;2.97;;;22.30;99.90;;;;;;5071328;28;20036;-88
2023/08/19 08:20:16;;;;;;;12.50;2.63;;;22.40;99.90;;;;;;5086042;28;20044;-87
2023/08/19 08:22:41;;;;;;;13.20;2.80;;;22.30;99.90;;;;;;5070269;28;20697;-87
2023/08/19 08:25:09;;;;;;;11.45;3.58;;;22.20;99.90;;;;;;5070258;28;20237;-86
2023/08/19 08:27:35;;;;;;;11.57;2.25;;;22.30;99.90;;;;;;5070194;28;20575;-87
2023/08/19 08:30:01;;;;;;;13.27;2.53;;;22.40;99.90;;;;;;5070168;28;20107;-87
2023/08/19 08:32:26;;;;;;;17.17;2.47;;;22.60;99.90;;;;;;5067663;28;20215;-87
2023/08/19 08:34:52;;;;;;;12.82;2.70;;;22.70;99.90;;;;;;5070713;28;20032;-87
2023/08/19 08:37:19;;;;;;;14.07;3.13;;;22.80;99.90;;;;;;5071062;28;20111;-87
2023/08/19 08:39:45;;;;;;;14.43;2.33;;;22.70;99.90;;;;;;5070203;28;20054;-86
2023/08/19 08:42:11;;;;;;;11.32;2.33;;;22.80;99.90;;;;;;5068998;28;20427;-87
2023/08/19 08:44:37;;;;;;;12.05;2.20;;;23.00;99.90;;;;;;5069647;28;20445;-87
2023/08/19 08:47:03;;;;;;;12.13;2.47;;;23.10;99.90;;;;;;5069939;28;20024;-87
2023/08/19 08:49:29;;;;;;;13.63;2.38;;;23.00;99.90;;;;;;5069208;28;20028;-88
2023/08/19 08:51:59;;;;;;;13.70;3.38;;;23.10;99.90;;;;;;5069941;28;20070;-87
2023/08/19 08:54:26;;;;;;;10.20;2.78;;;23.20;99.90;;;;;;5068433;28;20378;-88
2023/08/19 08:56:52;;;;;;;12.60;2.03;;;23.30;99.90;;;;;;5070721;28;20107;-87
2023/08/19 08:59:18;;;;;;;19.02;2.58;;;23.30;99.90;;;;;;5069298;28;20048;-88
2023/08/19 09:01:45;;;;;;;13.57;2.60;;;23.40;99.90;;;;;;5068943;28;20676;-88
2023/08/19 09:04:15;;;;;;;12.82;2.42;;;23.20;99.90;;;;;;5069394;28;20119;-88
2023/08/19 09:06:43;;;;;;;9.75;2.17;;;23.20;99.90;;;;;;5068928;28;20036;-87
2023/08/19 09:09:12;;;;;;;9.85;1.92;;;23.10;99.90;;;;;;5069738;28;20021;-87
2023/08/19 09:11:39;;;;;;;16.17;2.15;;;23.20;99.90;;;;;;5069179;28;20072;-87
2023/08/19 09:14:40;;;;;;;12.63;1.92;;;23.20;99.90;;;;;;5066872;28;20043;-86
2023/08/19 09:17:06;;;;;;;11.73;2.42;;;23.20;99.90;;;;;;5069184;28;20021;-86
2023/08/19 09:19:32;;;;;;;10.43;2.50;;;23.20;99.90;;;;;;5069596;28;20035;-87
2023/08/19 09:21:58;;;;;;;11.30;2.00;;;23.20;99.90;;;;;;5068155;28;20059;-85
2023/08/19 09:24:23;;;;;;;11.68;2.22;;;23.40;99.90;;;;;;5069655;28;20064;-85
2023/08/19 09:26:58;;;;;;;12.50;2.35;;;23.50;99.90;;;;;;5068983;28;20046;-87
2023/08/19 09:29:24;;;;;;;14.65;2.28;;;23.40;99.90;;;;;;5072557;28;20568;-85
2023/08/19 09:31:55;;;;;;;9.90;2.20;;;23.40;99.90;;;;;;5089555;28;20016;-84
2023/08/19 09:34:21;;;;;;;13.25;2.00;;;23.40;99.90;;;;;;5076642;28;20400;-84
2023/08/19 09:36:47;;;;;;;15.95;3.03;;;23.30;99.90;;;;;;5069116;28;20481;-85
2023/08/19 09:39:12;;;;;;;10.75;2.15;;;23.30;99.90;;;;;;5068729;28;20028;-85
2023/08/19 09:41:38;;;;;;;12.38;2.00;;;23.30;99.90;;;;;;5070390;28;20026;-85
2023/08/19 09:44:15;;;;;;;10.18;2.03;;;23.20;99.90;;;;;;5068188;28;20119;-85
2023/08/19 09:46:42;;;;;;;7.70;1.77;;;23.30;99.90;;;;;;5068885;28;20028;-86
2023/08/19 09:49:09;;;;;;;10.98;1.73;;;23.40;99.90;;;;;;5068899;28;20031;-86
2023/08/19 09:51:34;;;;;;;8.43;2.00;;;23.50;99.90;;;;;;5067852;28;20051;-86
2023/08/19 09:54:10;;;;;;;10.45;2.20;;;23.60;99.90;;;;;;5068433;28;20536;-86
2023/08/19 09:56:36;;;;;;;7.00;1.90;;;23.80;99.90;;;;;;5068387;28;20035;-87
2023/08/19 09:59:01;;;;;;;8.23;1.80;;;24.00;99.90;;;;;;5067337;28;20115;-85
2023/08/19 10:01:27;;;;;;;10.65;2.63;;;24.10;99.90;;;;;;5069126;28;20020;-86
2023/08/19 10:03:53;;;;;;;9.32;2.53;;;24.30;99.90;;;;;;5069235;28;20082;-86
2023/08/19 10:06:26;;;;;;;6.93;2.17;;;24.40;99.90;;;;;;5068522;28;20024;-85
2023/08/19 10:08:59;;;;;;;12.40;2.20;;;24.60;99.90;;;;;;5068714;28;20530;-86
2023/08/19 10:11:29;;;;;;;8.55;1.60;;;24.60;99.90;;;;;;5069029;28;20028;-85
2023/08/19 10:13:59;;;;;;;7.78;1.73;;;24.80;99.90;;;;;;5052275;28;20107;-86
2023/08/19 10:16:25;;;;;;;11.82;2.25;;;24.80;99.90;;;;;;5070810;28;20116;-85
2023/08/19 10:18:52;;;;;;;8.13;1.98;;;24.80;99.90;;;;;;5072515;28;20017;-85
2023/08/19 10:21:21;;;;;;;10.00;1.90;;;24.80;99.90;;;;;;5072462;28;20554;-86
2023/08/19 10:23:48;;;;;;;10.50;1.60;;;25.10;99.90;;;;;;5071956;28;20029;-85
2023/08/19 10:26:18;;;;;;;6.95;2.03;;;25.00;99.90;;;;;;5063952;28;20036;-84
2023/08/19 10:29:05;;;;;;;10.02;2.35;;;25.00;99.90;;;;;;5071978;28;20025;-85
2023/08/19 10:31:32;;;;;;;9.40;2.17;;;25.10;99.90;;;;;;5069551;28;20488;-86
2023/08/19 10:33:57;;;;;;;7.82;1.85;;;25.00;99.90;;;;;;5071908;28;20036;-86
2023/08/19 10:36:28;;;;;;;9.57;1.88;;;25.00;99.90;;;;;;5070819;28;20024;-85
2023/08/19 10:39:05;;;;;;;9.68;2.03;;;25.10;99.90;;;;;;5073623;28;20051;-85
2023/08/19 10:41:35;;;;;;;11.27;2.20;;;25.10;99.90;;;;;;5070465;28;20072;-85
2023/08/19 10:44:03;;;;;;;11.18;1.40;;;25.10;99.90;;;;;;5072066;28;20032;-85
2023/08/19 10:46:33;;;;;;;12.45;2.35;;;25.10;99.90;;;;;;5072424;28;20029;-85
2023/08/19 10:49:00;;;;;;;9.25;2.08;;;25.00;99.90;;;;;;5073130;28;20067;-84
2023/08/19 10:51:57;;;;;;;7.47;1.60;;;24.90;99.90;;;;;;5070688;28;20036;-88
2023/08/19 10:54:24;;;;;;;;;;;24.80;99.90;;;;;;5071788;28;20052;-88
2023/08/19 10:57:21;;;;;;;8.67;1.50;;;24.70;99.90;;;;;;5070746;28;19911;-86
2023/08/19 10:59:59;;;;;;;7.53;2.08;;;24.60;99.90;;;;;;5071982;28;20044;-87
2023/08/19 11:02:27;;;;;;;11.70;2.10;;;24.70;99.90;;;;;;5069791;28;20099;-84
2023/08/19 11:04:53;;;;;;;8.80;1.80;;;24.80;99.90;;;;;;5068970;28;20036;-88
2023/08/19 11:07:19;;;;;;;11.75;1.88;;;24.80;99.90;;;;;;5073518;28;20034;-85
2023/08/19 11:09:49;;;;;;;9.05;1.80;;;24.80;99.90;;;;;;5071883;28;20053;-85
2023/08/19 11:12:20;;;;;;;10.88;2.17;;;24.80;99.90;;;;;;5071123;28;20055;-86
2023/08/19 11:14:50;;;;;;;8.15;1.80;;;24.70;99.90;;;;;;5069560;28;20021;-85
2023/08/19 11:17:17;;;;;;;9.70;1.90;;;24.80;99.90;;;;;;5067148;28;20055;-87
2023/08/19 11:19:43;;;;;;;7.15;1.80;;;24.90;99.90;;;;;;5070981;28;20036;-88
2023/08/19 11:22:16;;;;;;;9.30;1.70;;;25.00;99.90;;;;;;5071344;28;20438;-87
2023/08/19 11:24:41;;;;;;;8.32;1.73;;;25.10;99.90;;;;;;5069700;28;20068;-86
2023/08/19 11:27:08;;;;;;;12.23;1.98;;;25.00;99.90;;;;;;5069985;28;20059;-85
2023/08/19 11:29:37;;;;;;;11.27;1.80;;;25.00;99.90;;;;;;5070648;28;20366;-85
2023/08/19 11:32:02;;;;;;;6.45;1.67;;;25.10;99.90;;;;;;5068526;28;20044;-86
2023/08/19 11:34:32;;;;;;;11.95;1.88;;;25.00;99.90;;;;;;5072223;28;20504;-87
2023/08/19 11:36:58;;;;;;;12.07;1.88;;;25.10;99.90;;;;;;5069290;28;20020;-85
2023/08/19 11:39:28;;;;;;;9.82;1.73;;;25.00;99.90;;;;;;5068067;28;20048;-85
2023/08/19 11:41:54;;;;;;;7.95;1.90;;;25.10;99.90;;;;;;5071047;28;20047;-87
2023/08/19 11:44:20;;;;;;;7.55;1.75;;;25.10;99.90;;;;;;5070272;28;20048;-88
2023/08/19 11:46:45;;;;;;;4.80;1.35;;;25.10;99.90;;;;;;5070358;28;20025;-89
2023/08/19 11:49:11;;;;;;;7.88;1.40;;;25.10;99.90;;;;;;5059926;28;20078;-85
2023/08/19 11:51:40;;;;;;;6.80;1.70;;;25.20;99.90;;;;;;5060680;28;20031;-84
2023/08/19 11:54:08;;;;;;;10.13;1.77;;;25.20;99.90;;;;;;5074313;28;20500;-85
2023/08/19 11:56:47;;;;;;;;;;;25.20;99.90;;;;;;5070560;28;20043;-85
2023/08/19 11:59:13;;;;;;;9.35;1.58;;;25.30;99.90;;;;;;5069240;28;19908;-86
2023/08/19 12:01:39;;;;;;;9.57;1.70;;;25.20;99.90;;;;;;5084229;28;20078;-88
2023/08/19 12:04:16;;;;;;;3.90;1.42;;;25.20;99.90;;;;;;5068635;28;20087;-85
2023/08/19 12:06:43;;;;;;;5.90;1.50;;;25.20;99.90;;;;;;5069132;28;20032;-87
2023/08/19 12:09:09;;;;;;;7.63;1.88;;;25.30;99.90;;;;;;5070005;28;20043;-88
2023/08/19 12:11:37;;;;;;;7.78;1.85;;;25.30;99.90;;;;;;5068762;28;20020;-88
2023/08/19 12:14:05;;;;;;;10.05;1.80;;;25.50;99.90;;;;;;5063737;28;20036;-89
2023/08/19 12:16:30;;;;;;;8.35;2.00;;;25.50;99.90;;;;;;5081109;28;20027;-88
2023/08/19 12:18:59;;;;;;;6.13;1.67;;;25.70;99.90;;;;;;5086328;28;20036;-89
2023/08/19 12:21:26;;;;;;;6.60;1.40;;;25.70;99.90;;;;;;5090903;28;20024;-86
2023/08/19 12:23:52;;;;;;;8.35;1.83;;;25.60;99.90;;;;;;5069334;28;20493;-86
2023/08/19 12:26:17;;;;;;;10.02;1.67;;;25.50;99.90;;;;;;5069629;28;20016;-88
2023/08/19 12:28:46;;;;;;;10.57;1.60;;;25.60;99.90;;;;;;5070430;28;20029;-88
2023/08/19 12:31:12;;;;;;;8.38;1.70;;;25.60;99.90;;;;;;5070665;28;20095;-87
2023/08/19 12:33:39;;;;;;;6.88;1.50;;;25.70;99.90;;;;;;5069638;28;20120;-87
2023/08/19 12:36:06;;;;;;;3.92;1.10;;;25.80;99.90;;;;;;5070563;28;20396;-89
2023/08/19 12:38:31;;;;;;;9.15;1.77;;;25.80;99.90;;;;;;5070620;28;20451;-85
2023/08/19 12:40:57;;;;;;;6.05;1.60;;;25.80;99.90;;;;;;5070071;28;20048;-87
2023/08/19 12:43:23;;;;;;;7.15;1.73;;;25.80;99.90;;;;;;5070225;28;20036;-87
2023/08/19 12:45:48;;;;;;;8.50;1.55;;;25.80;99.90;;;;;;5068253;28;20021;-86